Time;durP1;ratioP1;P1;durP2;ratioP2;P2;SDS_P1;SDS_P2;PMS_P1;PMS_P2;Temp;Humidity;BMP_temperature;BMP_pressure;BME280_temperature;BME280_humidity;BME280_pressure;Samples;Min_cycle;Max_cycle;Signal;HPM_P1;HPM_P2
2022/03/01 16:34:49;;;;;;;;;;;;;;;20.59;31.67;95585.69;4449309;19;3085156;-71
2022/03/01 16:36:19;;;;;;;;;;;;;;;20.61;31.38;95581.00;4608400;19;1862;-72
2022/03/01 16:37:49;;;;;;;;;;;;;;;20.62;31.51;95585.31;4563425;19;11991;-72
2022/03/01 16:39:20;;;;;;;;;;;;;;;20.63;31.16;95583.47;4517698;19;99510;-71
2022/03/01 16:40:50;;;;;;;;;;;;;;;20.66;31.11;95591.94;4606654;19;1721;-72
2022/03/01 16:42:20;;;;;;;;;;;;;;;20.67;31.25;95590.09;4596617;19;1601;-77
2022/03/01 16:43:50;;;;;;;;;;;;;;;20.71;30.83;95586.00;4583527;19;12080;-72
2022/03/01 16:45:21;;;;;;;;;;;;;;;20.74;31.01;95590.94;4605352;19;860;-72
2022/03/01 16:46:51;;;;;;;;;;;;;;;20.73;30.89;95594.66;4608619;19;1547;-72
2022/03/01 16:48:22;;;;;;;;;;;;;;;20.73;30.70;95589.31;4611663;19;1772;-71
2022/03/01 16:49:52;;;;;;;;;;;;;;;20.80;30.94;95600.84;4609246;19;915;-71
2022/03/01 16:51:24;;;;;;;;;;;;;;;20.90;31.18;95600.53;4608836;19;1034;-72
2022/03/01 16:52:55;;;;;;;;;;;;;;;20.91;31.21;95593.34;4595246;19;1040;-70
2022/03/01 16:54:25;;;;;;;;;;;;;;;20.84;31.45;95598.63;4607554;19;1838;-72
2022/03/01 16:55:56;;;;;;;;;;;;;;;20.81;32.15;95599.84;4608265;19;1725;-71
2022/03/01 16:57:26;;;;;;;;;;;;;;;20.86;32.35;95594.75;4610751;19;1697;-71
2022/03/01 16:58:56;;;;;;;;;;;;;;;20.84;32.58;95607.47;4609154;19;1692;-71
2022/03/01 17:00:30;;;;;;;;;;;;;;;20.80;32.79;95600.03;4610279;19;1693;-72
2022/03/01 17:02:00;;;;;;;;;;;;;;;20.78;33.23;95602.06;4607361;19;1640;-72
2022/03/01 17:03:31;;;;;;;;;;;;;;;20.76;33.75;95599.59;4608625;19;911;-72
2022/03/01 17:05:02;;;;;;;;;;;;;;;20.78;33.71;95605.56;4594246;19;915;-72
2022/03/01 17:06:32;;;;;;;;;;;;;;;20.78;33.96;95608.22;4608180;19;956;-70
2022/03/01 17:08:03;;;;;;;;;;;;;;;20.74;34.31;95606.94;4608657;19;856;-71
2022/03/01 17:09:34;;;;;;;;;;;;;;;20.77;34.56;95606.56;4607243;19;1194;-72
2022/03/01 17:11:04;;;;;;;;;;;;;;;20.77;34.75;95606.56;4608042;19;1022;-71
2022/03/01 17:12:35;;;;;;;;;;;;;;;20.76;34.92;95610.25;4608066;19;927;-73
2022/03/01 17:14:05;;;;;;;;;;;;;;;20.78;34.84;95607.41;4606948;19;1855;-72
2022/03/01 17:15:36;;;;;;;;;;;;;;;20.78;35.04;95608.22;4595847;19;1628;-71
2022/03/01 17:17:06;;;;;;;;;;;;;;;20.79;35.12;95611.72;4607300;19;1263;-71
2022/03/01 17:18:37;;;;;;;;;;;;;;;20.79;35.34;95609.88;4609368;19;1472;-72
2022/03/01 17:20:08;;;;;;;;;;;;;;;20.80;35.92;95616.03;4608159;19;916;-71
2022/03/01 17:21:39;;;;;;;;;;;;;;;20.76;36.01;95614.78;4610103;19;1702;-71
2022/03/01 17:23:09;;;;;;;;;;;;;;;20.77;35.69;95611.91;4607446;19;1507;-71
2022/03/01 17:24:39;;;;;;;;;;;;;;;20.78;35.87;95608.22;4608026;19;947;-71
2022/03/01 17:26:10;;;;;;;;;;;;;;;20.76;35.88;95610.25;4596040;19;983;-71
2022/03/01 17:27:40;;;;;;;;;;;;;;;20.79;36.23;95609.88;4608441;19;1666;-70
2022/03/01 17:29:11;;;;;;;;;;;;;;;20.77;35.64;95611.06;4608321;19;820;-71
2022/03/01 17:30:42;;;;;;;;;;;;;;;20.80;36.07;95611.50;4606725;19;1342;-70
2022/03/01 17:32:13;;;;;;;;;;;;;;;20.78;36.31;95612.75;4609844;19;1605;-70
2022/03/01 17:33:43;;;;;;;;;;;;;;;20.78;36.54;95602.91;4606856;19;1841;-72
2022/03/01 17:35:14;;;;;;;;;;;;;;;20.77;36.29;95606.56;4608295;19;855;-72
2022/03/01 17:36:44;;;;;;;;;;;;;;;20.75;36.40;95608.63;4608979;19;1626;-72
2022/03/01 17:38:15;;;;;;;;;;;;;;;20.77;36.32;95606.56;4592644;19;1294;-72
2022/03/01 17:39:46;;;;;;;;;;;;;;;20.74;35.87;95617.63;4607485;19;1606;-71
2022/03/01 17:41:16;;;;;;;;;;;;;;;20.72;35.98;95608.16;4606203;19;1276;-70
2022/03/01 17:42:48;;;;;;;;;;;;;;;20.72;36.51;95610.81;4610692;19;1659;-74
2022/03/01 17:44:18;;;;;;;;;;;;;;;20.69;36.61;95609.38;4607623;19;1617;-73
2022/03/01 17:45:49;;;;;;;;;;;;;;;20.70;36.23;95610.22;4598934;19;840;-71
2022/03/01 17:47:19;;;;;;;;;;;;;;;20.71;36.54;95611.84;4592996;19;1665;-71
2022/03/01 17:48:50;;;;;;;;;;;;;;;20.71;36.62;95610.00;4576705;19;1162;-72
2022/03/01 17:50:21;;;;;;;;;;;;;;;20.72;36.65;95611.66;4591929;19;1614;-74
2022/03/01 17:51:51;;;;;;;;;;;;;;;20.78;36.28;95616.22;4589131;19;1723;-75
2022/03/01 17:53:22;;;;;;;;;;;;;;;20.85;35.85;95616.28;4584715;19;1937;-71
2022/03/01 17:54:52;;;;;;;;;;;;;;;20.88;36.03;95614.03;4505705;19;12828;-71
2022/03/01 17:56:22;;;;;;;;;;;;;;;20.85;36.35;95608.28;4450270;19;107718;-70
2022/03/01 17:58:26;;;;;;;;;;;;;;;20.80;36.25;95614.19;2936824;19;14218;-70
2022/03/01 17:59:26;;;;;;;;;;;;;;;20.78;36.21;95618.06;2981399;19;13722;-71
2022/03/01 18:00:27;;;;;;;;;;;;;;;20.77;36.18;95614.56;2911417;19;13749;-70
2022/03/01 18:01:27;;;;;;;;;;;;;;;20.75;36.14;95621.94;2575680;19;13956;-70
2022/03/01 18:02:28;;;;;;;;;;;;;;;20.75;36.67;95615.75;2853661;19;13646;-72
2022/03/01 18:03:28;;;;;;;;;;;;;;;20.74;36.49;95620.28;2631919;19;5555;-70
2022/03/01 18:04:29;;;;;;;;;;;;;;;20.75;36.74;95615.75;2668028;19;12996;-71
2022/03/01 18:05:29;;;;;;;;;;;;;;;20.73;36.73;95620.50;2925510;19;15416;-71
2022/03/01 18:06:29;;;;;;;;;;;;;;;20.73;36.91;95626.63;2614448;19;11215;-70
2022/03/01 18:07:30;;;;;;;;;;;;;;;20.71;36.66;95622.50;2718300;19;14229;-71
2022/03/01 18:08:30;;;;;;;;;;;;;;;20.71;36.91;95628.66;3070919;19;904;-71
2022/03/01 18:09:30;;;;;;;;;;;;;;;20.71;36.46;95628.66;3070948;19;853;-71
2022/03/01 18:10:31;;;;;;;;;;;;;;;20.71;36.77;95623.34;3057258;19;1151;-71
2022/03/01 18:11:32;;;;;;;;;;;;;;;20.70;36.96;95627.03;3068676;19;1601;-71
2022/03/01 18:12:33;;;;;;;;;;;;;;;20.70;36.95;95627.03;3071981;19;1317;-71
2022/03/01 18:13:33;;;;;;;;;;;;;;;20.71;36.95;95620.66;3069918;19;1386;-71
2022/03/01 18:14:34;;;;;;;;;;;;;;;20.70;37.11;95624.34;3071816;19;1740;-70
2022/03/01 18:15:36;;;;;;;;;;;;;;;20.70;36.85;95624.34;3069480;19;1719;-71
2022/03/01 18:16:37;;;;;;;;;;;;;;;20.70;36.99;95620.88;3071469;19;1294;-71
2022/03/01 18:17:37;;;;;;;;;;;;;;;20.70;37.29;95624.34;3070729;19;1857;-71
2022/03/01 18:18:38;;;;;;;;;;;;;;;20.69;36.83;95628.06;3072637;19;916;-70
2022/03/01 18:19:38;;;;;;;;;;;;;;;20.69;36.85;95628.06;3070389;19;1242;-71
2022/03/01 18:20:38;;;;;;;;;;;;;;;20.68;36.90;95623.72;3070319;19;1733;-71
2022/03/01 18:21:39;;;;;;;;;;;;;;;20.69;36.94;95620.06;3054261;19;1642;-71
2022/03/01 18:22:39;;;;;;;;;;;;;;;20.69;37.17;95620.06;3070374;19;1624;-70
2022/03/01 18:23:40;;;;;;;;;;;;;;;20.68;37.47;95629.06;3071751;19;1055;-71
2022/03/01 18:24:40;;;;;;;;;;;;;;;20.68;37.04;95623.72;3071650;19;1686;-71
2022/03/01 18:25:41;;;;;;;;;;;;;;;20.70;37.10;95627.03;3068844;19;1575;-70
2022/03/01 18:26:42;;;;;;;;;;;;;;;20.71;37.50;95633.19;3073081;19;1641;-71
2022/03/01 18:27:42;;;;;;;;;;;;;;;20.68;36.88;95629.06;3070747;19;1620;-71
2022/03/01 18:28:43;;;;;;;;;;;;;;;20.69;37.17;95621.88;3070128;19;1763;-70
2022/03/01 18:29:43;;;;;;;;;;;;;;;20.69;37.03;95624.53;2994300;19;92302;-70
2022/03/01 18:31:32;;;;;;;;;;;;;;;20.73;37.15;95626.63;3042092;19;10746;-70
2022/03/01 18:32:33;;;;;;;;;;;;;;;20.75;37.74;95629.94;3003599;19;12842;-71
2022/03/01 18:33:34;;;;;;;;;;;;;;;20.74;37.75;95633.63;3070546;19;1698;-70
2022/03/01 18:34:34;;;;;;;;;;;;;;;20.73;37.77;95629.31;3070614;19;1837;-70
2022/03/01 18:35:35;;;;;;;;;;;;;;;20.70;37.93;95626.22;3071474;19;1590;-71
2022/03/01 18:36:35;;;;;;;;;;;;;;;20.69;37.48;95627.19;3070595;19;1313;-71
2022/03/01 18:37:36;;;;;;;;;;;;;;;20.66;37.92;95636.41;2996238;19;80582;-71
2022/03/01 18:48:39;;;;;;;;;;;;;;;21.71;24.48;95629.41;2112811;27;9780;-68
2022/03/01 18:49:41;;;;;;;;;;;;;;;21.67;24.67;95631.66;2042313;28;10698;-67
2022/03/01 18:50:44;;;;;;;;;;;;;;;21.69;24.29;95636.81;2092341;28;1817;-66
2022/03/01 18:51:45;;;;;;;;;;;;;;;21.72;24.22;95631.91;2105184;28;1780;-68
2022/03/01 18:52:50;;;;;;;;;;;;;;;21.76;24.22;95635.81;2102418;28;1746;-67
2022/03/01 18:53:52;;;;;;;;;;;;;;;21.76;24.03;95635.00;2098141;28;1801;-67
2022/03/01 18:54:54;;;;;;;;;;;;;;;21.76;24.19;95625.13;2099546;28;1852;-68
2022/03/01 18:55:55;;;;;;;;;;;;;;;21.78;23.89;95633.78;2036913;28;11463;-68
2022/03/01 18:56:57;;;;;;;;;;;;;;;21.80;23.63;95633.59;2076926;28;5878;-68
2022/03/01 18:57:59;;;;;;;;;;;;;;;21.82;25.22;95631.53;2065701;28;10940;-63
2022/03/01 18:59:58;;;;;;;;;;;;;;;22.21;33.88;95630.09;2061872;27;1764641;-68
2022/03/01 19:00:59;;;;;;;;;;;;;;;21.65;35.17;95636.38;2121659;28;2044;-68
2022/03/01 19:02:02;;;;;;;;;;;;;;;21.23;35.85;95632.81;2118161;28;1518;-68
2022/03/01 19:03:05;;;;;;;;;;;;;;;21.04;36.76;95633.47;2109713;28;1760;-67
2022/03/01 19:04:08;;;;;;;;;;;;;;;20.85;37.58;95633.09;2111895;28;1780;-68
2022/03/01 19:05:12;;;;;;;;;;;;;;;20.72;37.66;95635.66;2102650;28;2007;-68
2022/03/01 19:06:16;;;;;;;;;;;;;;;20.69;37.54;95629.88;2110561;28;1876;-68
2022/03/01 19:07:17;;;;;;;;;;;;;;;20.63;37.57;95634.13;2118206;27;1877;-69
2022/03/01 19:08:19;;;;;;;;;;;;;;;20.64;37.55;95633.94;2086231;28;72750;-68
2022/03/01 19:09:20;;;;;;;;;;;;;;;20.61;37.82;95637.00;2088750;28;10219;-70
2022/03/01 19:10:23;;;;;;;;;;;;;;;20.61;38.01;95636.16;2094048;28;9291;-68
2022/03/01 19:11:24;;;;;;;;;;;;;;;20.61;37.79;95629.00;2098631;28;1764;-67
2022/03/01 19:12:26;;;;;;;;;;;;;;;20.60;37.81;95626.50;2099098;28;1820;-66
2022/03/01 19:13:28;;;;;;;;;;;;;;;20.58;38.08;95634.72;2100378;28;1745;-67
2022/03/01 19:14:29;;;;;;;;;;;;;;;20.58;37.99;95629.38;2097119;28;1459;-67
2022/03/01 19:15:31;;;;;;;;;;;;;;;20.59;38.01;95624.88;2099692;28;1757;-67
2022/03/01 19:16:36;;;;;;;;;;;;;;;20.57;38.10;95627.72;2098320;28;1733;-68
2022/03/01 19:17:39;;;;;;;;;;;;;;;20.57;38.34;95621.56;2100440;28;2040;-65
2022/03/01 19:18:42;;;;;;;;;;;;;;;20.57;38.13;95626.88;2102022;28;1738;-68
2022/03/01 19:19:45;;;;;;;;;;;;;;;20.58;38.44;95628.56;2098812;28;1905;-68
2022/03/01 19:20:50;;;;;;;;;;;;;;;20.63;38.22;95631.44;2104077;28;1832;-68
2022/03/01 19:22:01;;;;;;;;;;;;;;;20.66;38.46;95625.75;2091307;28;1597;-69
2022/03/01 19:23:03;;;;;;;;;;;;;;;20.68;38.18;95623.72;2100961;28;1757;-68
2022/03/01 19:24:06;;;;;;;;;;;;;;;20.77;38.39;95627.88;2101859;28;1762;-67
2022/03/01 19:25:08;;;;;;;;;;;;;;;20.95;38.21;95630.13;2098942;28;1875;-68
2022/03/01 19:26:10;;;;;;;;;;;;;;;21.28;36.78;95629.53;2102108;28;1777;-67
2022/03/01 19:27:12;;;;;;;;;;;;;;;21.56;36.44;95632.22;2095525;28;1825;-67
2022/03/01 19:28:14;;;;;;;;;;;;;;;21.83;36.55;95630.53;2098922;28;1857;-67
2022/03/01 19:29:16;;;;;;;;;;;;;;;21.94;35.96;95623.78;2101468;28;1836;-69
2022/03/01 19:30:20;;;;;;;;;;;;;;;22.04;35.94;95629.59;2108208;28;1746;-68
2022/03/01 19:31:22;;;;;;;;;;;;;;;22.13;35.75;95627.56;2103949;28;1781;-70
2022/03/01 19:32:24;;;;;;;;;;;;;;;22.13;36.08;95632.91;2100223;28;1918;-69
2022/03/01 19:33:27;;;;;;;;;;;;;;;22.22;35.24;95629.88;2100217;28;1709;-68
2022/03/01 19:34:29;;;;;;;;;;;;;;;22.24;36.53;95635.03;2100250;28;1427;-70
2022/03/01 19:35:31;;;;;;;;;;;;;;;22.22;36.03;95632.53;2100362;28;1816;-68
2022/03/01 19:36:33;;;;;;;;;;;;;;;22.31;35.22;95635.84;2101139;28;1790;-69
2022/03/01 19:37:36;;;;;;;;;;;;;;;22.33;35.61;95631.16;2107880;28;2660;-68
2022/03/01 19:38:38;;;;;;;;;;;;;;;22.33;35.71;95635.66;2094430;28;1720;-71
2022/03/01 19:39:41;;;;;;;;;;;;;;;22.31;35.29;95627.84;2106151;28;1886;-66
2022/03/01 19:40:43;;;;;;;;;;;;;;;22.28;35.98;95635.44;2102671;28;1821;-68
2022/03/01 19:41:44;;;;;;;;;;;;;;;22.23;35.57;95636.06;2089341;28;1794;-69
2022/03/01 19:42:47;;;;;;;;;;;;;;;22.35;35.56;95636.31;2096717;28;1730;-69
2022/03/01 19:43:50;;;;;;;;;;;;;;;22.31;36.38;95635.03;2097323;28;1762;-69
2022/03/01 19:44:52;;;;;;;;;;;;;;;22.29;36.29;95631.78;2096371;28;1714;-71
2022/03/01 19:45:54;;;;;;;;;;;;;;;22.35;35.83;95636.31;2095207;28;1639;-69
2022/03/01 19:46:56;;;;;;;;;;;;;;;22.37;35.91;95634.22;2096148;28;1721;-69
2022/03/01 19:47:57;;;;;;;;;;;;;;;22.36;36.24;95643.28;2102858;28;1707;-69
2022/03/01 19:48:59;;;;;;;;;;;;;;;22.40;36.20;95636.53;2090269;22;1737;-60
2022/03/01 19:50:01;;;;;;;;;;;;;;;22.45;35.77;95631.38;2075626;28;2100;-66
2022/03/01 19:51:03;;;;;;;;;;;;;;;22.53;35.74;95628.53;2078487;28;1746;-64
2022/03/01 19:52:05;;;;;;;;;;;;;;;22.54;35.88;95630.19;2071827;28;1457;-68
2022/03/01 19:53:07;;;;;;;;;;;;;;;22.49;36.25;95627.28;2078988;28;1785;-67
2022/03/01 19:54:10;;;;;;;;;;;;;;;22.52;36.12;95631.41;2078271;28;1676;-67
2022/03/01 19:55:13;;;;;;;;;;;;;;;22.49;36.30;95629.16;2078901;28;1699;-66
2022/03/01 19:56:15;;;;;;;;;;;;;;;22.52;36.14;95634.09;2078844;28;1734;-67
2022/03/01 19:57:16;;;;;;;;;;;;;;;;;;2076429;28;1877;-63
2022/03/01 19:58:18;;;;;;;;;;;;;;;22.61;35.84;95632.88;2078610;28;1747;-68
2022/03/01 19:59:20;;;;;;;;;;;;;;;22.60;36.08;95634.72;2078189;28;1704;-65
2022/03/01 20:00:23;;;;;;;;;;;;;;;22.51;36.46;95640.44;2074443;28;1992;-68
2022/03/01 20:01:25;;;;;;;;;;;;;;;22.49;35.99;95632.63;2073308;28;1593;-65
2022/03/01 20:02:27;;;;;;;;;;;;;;;22.55;36.52;95634.50;2076585;28;1593;-63
2022/03/01 20:03:29;;;;;;;;;;;;;;;22.59;36.10;95626.88;2078162;28;1450;-67
2022/03/01 20:04:31;;;;;;;;;;;;;;;22.59;36.36;95632.22;2075108;28;1585;-67
2022/03/01 20:05:34;;;;;;;;;;;;;;;22.55;36.17;95629.16;2078914;28;1521;-62
2022/03/01 20:06:36;;;;;;;;;;;;;;;22.57;36.43;95631.59;2079305;28;1482;-67
2022/03/01 20:07:38;;;;;;;;;;;;;;;22.57;36.62;95628.94;2078670;28;1390;-66
2022/03/01 20:08:40;;;;;;;;;;;;;;;22.58;36.74;95636.75;2078886;28;1426;-65
2022/03/01 20:09:42;;;;;;;;;;;;;;;22.65;35.88;95632.28;2078724;28;1525;-66
2022/03/01 20:10:44;;;;;;;;;;;;;;;22.68;36.11;95625.66;2077130;28;1545;-64
2022/03/01 20:11:51;;;;;;;;;;;;;;;22.62;36.11;95627.28;2061854;28;1444;-66
2022/03/01 20:12:53;;;;;;;;;;;;;;;22.59;36.18;95627.72;2072010;28;1545;-67
2022/03/01 20:13:55;;;;;;;;;;;;;;;22.58;36.63;95626.06;2072317;28;1506;-66
2022/03/01 20:14:56;;;;;;;;;;;;;;;22.55;36.72;95629.16;2072598;28;2057;-64
2022/03/01 21:12:17;;;;;;;;;;;;;;;22.16;39.40;95614.63;1970943;30;2346;-59
2022/03/01 21:13:19;;;;;;;;;;;;;;;22.14;39.89;95611.34;1972566;30;1642;-58
2022/03/01 21:14:21;;;;;;;;;;;;;;;22.16;40.10;95601.25;1972393;30;1033;-59
2022/03/01 21:15:26;;;;;;;;;;;;;;;22.19;39.74;95611.56;1970748;30;1965;-58
2022/03/01 21:16:28;;;;;;;;;;;;;;;22.16;39.81;95608.44;1978463;29;1534;-60
2022/03/01 21:17:30;;;;;;;;;;;;;;;22.16;39.88;95609.25;1969006;29;1537;-60
2022/03/01 21:18:32;;;;;;;;;;;;;;;22.15;39.79;95610.31;1972193;30;1348;-59
2022/03/01 21:19:37;;;;;;;;;;;;;;;22.18;39.82;95604.59;1972419;30;1675;-60
2022/03/01 21:20:39;;;;;;;;;;;;;;;22.21;39.72;95614.06;1972461;30;1911;-59
2022/03/01 21:21:41;;;;;;;;;;;;;;;22.27;39.72;95597.22;2035325;24;1942;-77
2022/03/01 21:22:42;;;;;;;;;;;;;;;22.25;40.16;95607.25;1989252;29;1543;-77
2022/03/01 21:23:44;;;;;;;;;;;;;;;22.24;39.80;95605.63;1994071;29;1764;-77
2022/03/01 21:24:46;;;;;;;;;;;;;;;22.29;39.73;95607.72;1990978;29;1967;-75
2022/03/01 21:25:47;;;;;;;;;;;;;;;22.21;40.06;95606.84;1987362;29;1823;-78
2022/03/01 21:26:49;;;;;;;;;;;;;;;22.27;39.91;95604.41;2004637;24;1946;-59
2022/03/01 21:27:51;;;;;;;;;;;;;;;22.21;40.10;95604.19;1993865;29;1204;-59
2022/03/01 21:28:53;;;;;;;;;;;;;;;22.20;40.23;95607.88;1983352;29;1667;-59
2022/03/01 21:29:55;;;;;;;;;;;;;;;22.14;40.90;95597.97;1994901;29;2236;-59
2022/03/01 21:31:00;;;;;;;;;;;;;;;22.14;40.17;95608.66;1990279;29;1699;-59
2022/03/01 21:32:02;;;;;;;;;;;;;;;22.16;40.46;95606.59;2006160;24;1471;-59
2022/03/01 21:33:08;;;;;;;;;;;;;;;22.19;40.29;95610.75;1996262;29;1234;-60
2022/03/01 21:34:10;;;;;;;;;;;;;;;22.17;40.51;95602.94;2001901;29;1217;-60
2022/03/01 21:35:12;;;;;;;;;;;;;;;22.17;40.49;95602.06;2009915;29;1727;-70
2022/03/01 21:36:14;;;;;;;;;;;;;;;22.20;40.44;95604.41;2002273;29;1138;-69
2022/03/01 21:37:16;;;;;;;;;;;;;;;22.22;40.20;95599.66;2002213;29;1821;-70
2022/03/01 21:38:19;;;;;;;;;;;;;;;22.17;40.59;95600.28;2001943;29;1716;-70
2022/03/01 21:39:20;;;;;;;;;;;;;;;22.15;40.91;95599.63;1997260;29;1054;-69
2022/03/01 21:40:22;;;;;;;;;;;;;;;22.14;40.94;95597.97;2001590;29;1911;-70
2022/03/01 21:41:24;;;;;;;;;;;;;;;22.17;40.44;95599.41;1999815;29;1811;-70
2022/03/01 21:42:25;;;;;;;;;;;;;;;22.12;40.72;95596.53;1926560;29;13937;-70
2022/03/01 21:43:27;;;;;;;;;;;;;;;22.14;40.69;95600.66;2001607;29;1052;-70
2022/03/01 21:44:29;;;;;;;;;;;;;;;22.17;40.93;95597.59;2000716;29;1558;-70
2022/03/01 21:45:31;;;;;;;;;;;;;;;22.12;41.04;95599.19;1999060;29;1550;-70
2022/03/01 21:46:33;;;;;;;;;;;;;;;22.11;40.75;95597.53;2002133;29;1896;-70
2022/03/01 21:47:34;;;;;;;;;;;;;;;22.14;40.93;95599.81;2002183;29;1636;-70
2022/03/01 21:48:36;;;;;;;;;;;;;;;22.13;41.14;95598.16;2002044;29;1721;-70
2022/03/01 21:49:38;;;;;;;;;;;;;;;22.20;40.54;95601.72;2000971;29;1543;-70
2022/03/01 21:50:40;;;;;;;;;;;;;;;22.16;41.00;95603.09;1997723;29;1863;-70
2022/03/01 21:51:42;;;;;;;;;;;;;;;22.10;40.84;95601.25;1994851;29;1257;-70
2022/03/01 21:52:44;;;;;;;;;;;;;;;22.14;40.97;95602.47;2002002;29;1041;-72
2022/03/01 21:53:45;;;;;;;;;;;;;;;22.12;41.16;95600.03;2009860;29;1232;-70
2022/03/01 21:54:47;;;;;;;;;;;;;;;22.14;41.04;95602.47;2009013;29;1239;-70
2022/03/01 21:55:52;;;;;;;;;;;;;;;22.10;41.55;95596.72;2002670;29;1345;-70
2022/03/01 21:56:54;;;;;;;;;;;;;;;22.11;41.33;95598.34;2002429;29;1106;-70
2022/03/01 21:57:55;;;;;;;;;;;;;;;22.13;41.24;95598.16;2002628;29;1862;-72
2022/03/01 21:58:58;;;;;;;;;;;;;;;22.12;41.58;95608.03;2003178;29;1005;-68
2022/03/01 21:59:59;;;;;;;;;;;;;;;22.12;41.68;95594.66;2001496;29;1150;-69
2022/03/01 22:01:02;;;;;;;;;;;;;;;22.13;41.38;95596.31;2002054;29;1907;-70
2022/03/01 22:02:04;;;;;;;;;;;;;;;22.12;41.54;95600.03;1991912;29;1096;-70
2022/03/01 22:03:06;;;;;;;;;;;;;;;22.08;41.47;95604.09;2000938;29;1093;-70
2022/03/01 22:04:07;;;;;;;;;;;;;;;22.04;41.71;95597.53;2001768;29;1121;-69
2022/03/01 22:05:10;;;;;;;;;;;;;;;22.06;41.72;95600.81;2001869;29;1605;-69
2022/03/01 22:06:12;;;;;;;;;;;;;;;22.02;41.89;95597.72;1994895;29;1046;-69
2022/03/01 22:07:13;;;;;;;;;;;;;;;22.04;41.33;95600.19;1989825;29;1658;-69
2022/03/01 22:08:16;;;;;;;;;;;;;;;22.04;41.73;95596.69;2002184;29;1013;-69
2022/03/01 22:09:17;;;;;;;;;;;;;;;22.04;42.03;95592.19;1998654;29;1319;-70
2022/03/01 22:10:20;;;;;;;;;;;;;;;22.06;41.79;95597.31;2001816;29;1299;-69
2022/03/01 22:11:22;;;;;;;;;;;;;;;22.06;41.32;95599.97;1999208;29;1393;-69
2022/03/01 22:12:23;;;;;;;;;;;;;;;22.12;41.59;95592.00;1988136;29;1121;-69
2022/03/01 22:13:25;;;;;;;;;;;;;;;22.08;42.05;95593.41;1997960;29;1369;-70
2022/03/01 22:14:27;;;;;;;;;;;;;;;22.09;41.95;95595.06;2002879;29;1647;-69
2022/03/01 22:15:28;;;;;;;;;;;;;;;22.14;41.49;95587.28;2002901;29;1503;-68
2022/03/01 22:16:30;;;;;;;;;;;;;;;22.15;41.97;95596.94;2002128;29;1184;-69
2022/03/01 22:17:32;;;;;;;;;;;;;;;22.08;42.00;95588.06;2001091;29;1908;-69
2022/03/01 22:18:33;;;;;;;;;;;;;;;22.21;41.22;95585.47;2002288;29;1117;-69
2022/03/01 22:19:35;;;;;;;;;;;;;;;22.19;40.58;95590.19;2002846;29;1102;-69
2022/03/01 22:20:37;;;;;;;;;;;;;;;22.20;40.90;95593.72;2002727;29;1982;-69
2022/03/01 22:21:39;;;;;;;;;;;;;;;22.21;41.20;95598.84;2002541;29;1728;-68
2022/03/01 22:22:41;;;;;;;;;;;;;;;22.17;41.30;95589.59;2001545;29;1361;-68
2022/03/01 22:23:42;;;;;;;;;;;;;;;22.26;41.12;95595.56;1997777;29;1493;-70
2022/03/01 22:24:44;;;;;;;;;;;;;;;22.26;40.92;95590.22;2002491;29;1093;-69
2022/03/01 22:25:45;;;;;;;;;;;;;;;22.23;41.42;95588.78;2002678;29;1210;-68
2022/03/01 22:26:47;;;;;;;;;;;;;;;22.29;40.94;95591.69;2002582;29;1648;-77
2022/03/01 22:27:49;;;;;;;;;;;;;;;22.48;40.30;95590.03;2002463;29;1069;-71
2022/03/01 22:28:50;;;;;;;;;;;;;;;22.46;40.19;95587.59;2001700;29;1718;-69
2022/03/01 22:29:52;;;;;;;;;;;;;;;22.40;40.00;95591.91;2001663;29;2043;-70
2022/03/01 22:30:54;;;;;;;;;;;;;;;22.35;39.52;95582.84;2000345;29;1051;-69
2022/03/01 22:31:56;;;;;;;;;;;;;;;22.30;39.67;95595.97;2001764;29;1684;-71
2022/03/01 22:32:58;;;;;;;;;;;;;;;22.26;39.84;95590.22;2002541;29;1673;-69
2022/03/01 22:34:04;;;;;;;;;;;;;;;22.27;39.91;95585.69;2001992;29;1703;-70
2022/03/01 22:35:06;;;;;;;;;;;;;;;22.27;40.04;95585.69;1998070;29;1714;-70
2022/03/01 22:36:08;;;;;;;;;;;;;;;22.25;39.70;95582.41;2002454;29;1118;-70
2022/03/01 22:37:10;;;;;;;;;;;;;;;22.26;39.94;95589.41;2002663;29;1721;-70
2022/03/01 22:38:12;;;;;;;;;;;;;;;22.23;39.67;95586.09;2002904;29;1557;-70
2022/03/01 22:39:14;;;;;;;;;;;;;;;22.29;39.39;95589.00;2002565;29;1435;-69
2022/03/01 22:40:16;;;;;;;;;;;;;;;22.28;39.61;95588.16;1995152;29;1181;-70
2022/03/01 22:41:18;;;;;;;;;;;;;;;22.34;39.22;95594.53;1997033;29;1916;-69
2022/03/01 22:42:19;;;;;;;;;;;;;;;22.35;39.26;95588.19;2002964;29;1024;-69
2022/03/01 22:43:21;;;;;;;;;;;;;;;22.31;39.46;95585.06;2002811;29;1696;-70
2022/03/01 22:44:23;;;;;;;;;;;;;;;22.31;39.51;95581.59;2002748;29;1654;-69
2022/03/01 22:45:25;;;;;;;;;;;;;;;22.31;39.46;95586.94;1997775;29;1673;-69
2022/03/01 22:46:27;;;;;;;;;;;;;;;22.28;39.68;95593.50;2002630;29;1088;-69
2022/03/01 22:47:28;;;;;;;;;;;;;;;22.29;39.63;95589.81;2002112;29;1691;-69
2022/03/01 22:48:30;;;;;;;;;;;;;;;22.26;39.41;95589.41;2003398;29;1404;-68
2022/03/01 22:49:32;;;;;;;;;;;;;;;22.27;39.52;95591.88;2001632;29;1728;-68
2022/03/01 22:50:35;;;;;;;;;;;;;;;22.29;39.46;95595.16;2002410;29;1060;-69
2022/03/01 22:51:36;;;;;;;;;;;;;;;22.29;39.21;95594.34;2002666;29;1515;-69
2022/03/01 22:52:38;;;;;;;;;;;;;;;22.27;39.23;95593.72;2002117;29;1157;-68
2022/03/01 22:53:39;;;;;;;;;;;;;;;22.25;39.37;95593.91;2002406;29;1669;-69
2022/03/01 22:54:41;;;;;;;;;;;;;;;22.28;39.58;95595.34;2002252;29;1679;-69
2022/03/01 22:55:43;;;;;;;;;;;;;;;22.31;39.48;95594.94;2002495;29;1693;-69
2022/03/01 22:56:44;;;;;;;;;;;;;;;22.29;39.39;95589.00;1997368;29;1664;-69
2022/03/01 22:57:47;;;;;;;;;;;;;;;22.29;39.37;95589.00;1998396;29;1603;-68
2022/03/01 22:58:49;;;;;;;;;;;;;;;22.28;39.29;95587.34;2001811;29;1827;-70
2022/03/01 22:59:50;;;;;;;;;;;;;;;22.28;39.10;95587.34;2000826;29;1740;-70
2022/03/01 23:00:52;;;;;;;;;;;;;;;22.28;39.26;95584.66;2002350;29;1988;-70
2022/03/01 23:01:54;;;;;;;;;;;;;;;22.26;39.52;95587.56;2002536;29;1651;-70
2022/03/01 23:02:56;;;;;;;;;;;;;;;22.35;39.23;95593.53;2002108;29;1708;-69
2022/03/01 23:04:00;;;;;;;;;;;;;;;22.34;39.41;95592.72;2003284;29;1073;-69
2022/03/01 23:05:02;;;;;;;;;;;;;;;22.30;39.23;95580.75;2001889;29;1508;-69
2022/03/01 23:06:04;;;;;;;;;;;;;;;22.35;39.01;95586.34;2002581;29;1519;-68
2022/03/01 23:08:25;;;;;;;;;;;;;;;22.38;39.24;95587.78;2001969;29;1717;-68
2022/03/01 23:09:27;;;;;;;;;;;;;;;22.41;38.93;95582.03;2001664;29;1701;-68
2022/03/01 23:10:29;;;;;;;;;;;;;;;22.32;39.02;95584.06;2000589;29;1711;-70
2022/03/01 23:11:30;;;;;;;;;;;;;;;22.30;39.27;95586.09;2002481;29;1640;-69
2022/03/01 23:12:32;;;;;;;;;;;;;;;22.38;39.21;95585.94;2001719;29;1748;-69
2022/03/01 23:13:36;;;;;;;;;;;;;;;22.37;39.13;95588.78;2001916;29;1659;-69
2022/03/01 23:14:37;;;;;;;;;;;;;;;22.38;38.88;95583.25;2002650;29;1635;-69
2022/03/01 23:15:39;;;;;;;;;;;;;;;22.38;39.13;95587.78;2002605;29;1569;-69
2022/03/01 23:16:41;;;;;;;;;;;;;;;22.36;38.79;95587.16;2002205;29;1650;-70
2022/03/01 23:17:42;;;;;;;;;;;;;;;22.35;39.18;95585.50;2001933;29;1073;-69
2022/03/01 23:18:44;;;;;;;;;;;;;;;22.31;39.21;95592.28;1996394;29;1585;-69
2022/03/01 23:19:45;;;;;;;;;;;;;;;22.31;39.31;95579.72;2002099;29;1675;-71
2022/03/01 23:20:47;;;;;;;;;;;;;;;22.37;38.98;95578.09;2001699;29;1645;-69
2022/03/01 23:21:49;;;;;;;;;;;;;;;22.38;39.16;95582.44;2002252;29;1978;-70
2022/03/01 23:22:50;;;;;;;;;;;;;;;22.38;39.03;95577.91;1994532;29;1049;-69
2022/03/01 23:23:52;;;;;;;;;;;;;;;22.39;38.83;95578.72;2001117;29;1684;-71
2022/03/01 23:24:54;;;;;;;;;;;;;;;22.36;38.85;95585.28;2001697;29;1700;-69
2022/03/01 23:25:55;;;;;;;;;;;;;;;22.36;38.79;95585.28;2002356;29;1321;-69
2022/03/01 23:26:57;;;;;;;;;;;;;;;22.37;39.25;95584.28;2002408;29;1836;-70
2022/03/01 23:27:59;;;;;;;;;;;;;;;22.35;38.96;95585.50;2001600;29;1674;-70
2022/03/01 23:29:00;;;;;;;;;;;;;;;22.39;39.07;95578.72;2002532;29;1676;-70
2022/03/01 23:30:03;;;;;;;;;;;;;;;22.41;38.85;95582.03;1998715;29;1706;-68
2022/03/01 23:31:05;;;;;;;;;;;;;;;22.37;38.96;95576.28;2002028;29;1711;-69
2022/03/01 23:32:07;;;;;;;;;;;;;;;22.42;38.93;95576.47;2001632;29;1717;-70
2022/03/01 23:33:08;;;;;;;;;;;;;;;22.34;38.89;95576.69;1994275;29;1826;-69
2022/03/01 23:34:12;;;;;;;;;;;;;;;22.32;38.98;95577.91;2001624;29;1660;-69
2022/03/01 23:35:14;;;;;;;;;;;;;;;22.31;38.99;95577.06;2003004;29;1028;-69
2022/03/01 23:36:15;;;;;;;;;;;;;;;22.32;38.94;95572.56;2002062;29;992;-69
2022/03/01 23:37:17;;;;;;;;;;;;;;;22.33;39.17;95577.69;2001765;29;1563;-69